Seeley, CA

1:26 PM PDT on May 27, 2015 (GMT -0700)
El Centro Naval Air Facility | | Change Station
CLOSE
Current Station
Airport
Location: El Centro,
Elevation: -43 ft
Nearby Weather Stations

Elev -43 ft 32.83 °N, 115.66 °W | Updated 30 minutes ago

Partly Cloudy
Partly Cloudy
91 °F
Feels Like 91 °F
N
0
Wind Variable Wind from North

Today
High -- | Low -- °F
--% Chance of Precip.
Yesterday
High -- | Low -- °F
Precip. -- in
5:37 AM 7:42 PM
Waxing Gibbous, 70% visible
Pressure 29.90 in
Visibility 10.0 miles
Clouds Few 1000 ft
Few 8000 ft
Scattered Clouds 25000 ft
Dew Point 46 °F
Humidity 21%
Rainfall 0.00 in
Snow Depth Not available.
UV 10 out of 12
Pollen 5.60 out of 12
Air Quality Not available.
Flu Activity Sporadic
METAR KNJK 271956Z 00000KT 10SM FEW010 FEW080 SCT250 33/08 A2985 RMK AO2 SLP124 FU FEW010 N-NE T03280078 $

More Conditions Fewer Conditions

Pressure 29.90 in
Visibility 10.0 miles
Clouds Few 1000 ft
Few 8000 ft
Scattered Clouds 25000 ft
Dew Point 46 °F
Humidity 21%
Rainfall 0.00 in
Snow Depth Not available.
UV 10 out of 12
Pollen 5.60 out of 12
Air Quality Not available.
Flu Activity Sporadic
METAR KNJK 271956Z 00000KT 10SM FEW010 FEW080 SCT250 33/08 A2985 RMK AO2 SLP124 FU FEW010 N-NE T03280078 $

More Conditions Fewer Conditions

10-Day Weather Forecast

Almanac

Astronomy

May. 27, 2015 Rise Set
Actual Time
Civil Twilight
Nautical Twilight
Astronomical Twilight
Moon
Length of Visible Light
Length of Day
Tomorrow will be .
, % of the Moon is Illuminated

Today's Extremes

State Highs State Lows

Community

WunderPhotos

Upload Photos

1,824,778 photos uploaded!

WunderBlogs® & News

Nearby

Air Quality

  Air Quality AQ Index Pollutant
Not available.

Snow Depth

Station Depth Elevation

Earthquake Activity

City Distance Mag. Time & Date
Minimum magnitude displayed is 2.5.

Coastal Water Temperatures

Place Temperature

Stations

Nearby Weather Stations

Station Location Temp. Windchill Dew Point Humidity Wind Precip. Elev Updated Type